Time;durP1;ratioP1;P1;durP2;ratioP2;P2;SDS_P1;SDS_P2;PMS_P1;PMS_P2;Temp;Humidity;BMP_temperature;BMP_pressure;BME280_temperature;BME280_humidity;BME280_pressure;Samples;Min_cycle;Max_cycle;Signal;HPM_P1;HPM_P2
2023/07/28 00:00:56;;;;;;;7.13;4.43;;;14.20;99.90;;;;;;5019717;28;20435;-60
2023/07/28 00:03:22;;;;;;;6.07;3.90;;;14.20;99.90;;;;;;5028006;28;20190;-59
2023/07/28 00:05:49;;;;;;;7.97;3.90;;;14.20;99.90;;;;;;5019733;28;20176;-59
2023/07/28 00:08:14;;;;;;;7.67;5.53;;;14.10;99.90;;;;;;5023473;28;20613;-59
2023/07/28 00:10:43;;;;;;;7.60;4.30;;;14.10;99.90;;;;;;5022735;28;20472;-59
2023/07/28 00:13:09;;;;;;;6.67;4.50;;;14.00;99.90;;;;;;5023795;28;20230;-60
2023/07/28 00:15:35;;;;;;;4.37;3.87;;;14.00;99.90;;;;;;5018559;28;20431;-59
2023/07/28 00:18:01;;;;;;;6.30;4.50;;;14.00;99.90;;;;;;5024396;28;20437;-58
2023/07/28 00:20:27;;;;;;;5.60;4.07;;;13.90;99.90;;;;;;5023213;28;20469;-58
2023/07/28 00:22:53;;;;;;;5.90;4.30;;;14.00;99.90;;;;;;5017463;28;20440;-60
2023/07/28 00:25:19;;;;;;;6.57;4.67;;;14.00;99.90;;;;;;5019771;28;20435;-59
2023/07/28 00:27:44;;;;;;;7.20;4.37;;;14.00;99.90;;;;;;5025960;28;20180;-59
2023/07/28 00:30:11;;;;;;;8.10;3.73;;;13.90;99.90;;;;;;5018795;28;20216;-58
2023/07/28 00:32:37;;;;;;;4.53;3.97;;;13.90;99.90;;;;;;5017773;28;20192;-60
2023/07/28 00:35:02;;;;;;;4.43;4.03;;;13.80;99.90;;;;;;5016463;28;20512;-59
2023/07/28 00:37:28;;;;;;;4.03;3.63;;;13.90;99.90;;;;;;5019177;28;20173;-59
2023/07/28 00:39:54;;;;;;;5.63;3.80;;;13.80;99.90;;;;;;5015011;28;20219;-59
2023/07/28 00:42:19;;;;;;;6.20;3.90;;;13.80;99.90;;;;;;5018791;28;20212;-63
2023/07/28 00:44:45;;;;;;;7.20;4.40;;;13.80;99.90;;;;;;5021260;28;20263;-59
2023/07/28 00:47:11;;;;;;;3.97;3.57;;;13.80;99.90;;;;;;5018042;28;20204;-58
2023/07/28 00:49:39;;;;;;;7.00;4.20;;;13.80;99.90;;;;;;5015982;28;20274;-63
2023/07/28 00:52:09;;;;;;;8.13;4.97;;;13.70;99.90;;;;;;5011067;28;20436;-58
2023/07/28 00:54:35;;;;;;;7.43;4.30;;;13.70;99.90;;;;;;5023850;28;20430;-59
2023/07/28 00:57:04;;;;;;;7.80;4.23;;;13.70;99.90;;;;;;5024443;28;20438;-59
2023/07/28 00:59:30;;;;;;;4.57;3.90;;;13.70;99.90;;;;;;5019125;28;20219;-60
2023/07/28 01:01:56;;;;;;;5.77;4.43;;;13.70;99.90;;;;;;5019332;28;20948;-58
2023/07/28 01:04:22;;;;;;;5.67;3.87;;;13.60;99.90;;;;;;5015860;28;20471;-58
2023/07/28 01:07:08;;;;;;;4.40;3.93;;;13.60;99.90;;;;;;5020924;28;20604;-58
2023/07/28 01:09:46;;;;;;;5.63;4.33;;;13.60;99.90;;;;;;5017574;28;20227;-59
2023/07/28 01:12:12;;;;;;;11.13;4.07;;;13.60;99.90;;;;;;5013940;28;20435;-59
2023/07/28 01:14:38;;;;;;;8.30;4.30;;;13.50;99.90;;;;;;5017201;28;20454;-59
2023/07/28 01:17:04;;;;;;;7.33;3.50;;;13.50;99.90;;;;;;5021351;28;20235;-59
2023/07/28 01:19:29;;;;;;;5.37;4.17;;;13.50;99.90;;;;;;5015885;28;20242;-60
2023/07/28 01:22:10;;;;;;;5.43;4.10;;;13.50;99.90;;;;;;5017937;28;20207;-59
2023/07/28 01:24:41;;;;;;;7.23;4.30;;;13.50;99.90;;;;;;5017961;28;20176;-60
2023/07/28 01:27:08;;;;;;;7.40;4.00;;;13.50;99.90;;;;;;5019927;28;20438;-58
2023/07/28 01:29:35;;;;;;;9.47;3.97;;;13.50;99.90;;;;;;5018723;28;20946;-59
2023/07/28 01:32:01;;;;;;;5.83;3.80;;;13.50;99.90;;;;;;5019366;28;20515;-59
2023/07/28 01:34:26;;;;;;;5.73;3.90;;;13.40;99.90;;;;;;5016925;28;20510;-59
2023/07/28 01:36:52;;;;;;;4.57;4.13;;;13.50;99.90;;;;;;5015003;28;20257;-60
2023/07/28 01:39:17;;;;;;;7.13;4.47;;;13.40;99.90;;;;;;5013463;28;20235;-59
2023/07/28 01:41:44;;;;;;;5.20;4.07;;;13.40;99.90;;;;;;5021655;28;20177;-59
2023/07/28 01:44:10;;;;;;;7.47;4.43;;;13.40;99.90;;;;;;5013897;28;20179;-58
2023/07/28 01:46:36;;;;;;;5.03;4.53;;;13.40;99.90;;;;;;5016917;28;20486;-59
2023/07/28 01:49:01;;;;;;;5.17;3.77;;;13.40;99.90;;;;;;5012457;28;20474;-57
2023/07/28 01:51:27;;;;;;;5.30;4.17;;;13.40;99.90;;;;;;5021711;28;20170;-58
2023/07/28 01:53:53;;;;;;;4.57;3.80;;;13.50;99.90;;;;;;5024288;28;20178;-59
2023/07/28 01:56:18;;;;;;;4.70;3.77;;;13.50;99.90;;;;;;5013172;28;20628;-60
2023/07/28 01:58:44;;;;;;;5.93;3.87;;;13.50;99.90;;;;;;5015417;28;20210;-59
2023/07/28 02:01:12;;;;;;;5.03;4.10;;;13.50;99.90;;;;;;5018749;28;20211;-60
2023/07/28 02:03:37;;;;;;;6.00;4.60;;;13.50;99.90;;;;;;5020587;28;20183;-60
2023/07/28 02:06:03;;;;;;;5.67;4.03;;;13.50;99.90;;;;;;5015467;28;20442;-58
2023/07/28 02:08:28;;;;;;;4.03;3.27;;;13.50;99.90;;;;;;5014153;28;20232;-59
2023/07/28 02:10:54;;;;;;;3.83;3.53;;;13.40;99.90;;;;;;5013713;28;20173;-59
2023/07/28 02:13:20;;;;;;;3.87;3.47;;;13.40;99.90;;;;;;5020881;28;20168;-57
2023/07/28 02:15:45;;;;;;;5.33;4.17;;;13.40;99.90;;;;;;5024086;28;20179;-59
2023/07/28 02:18:11;;;;;;;3.90;3.40;;;13.40;99.90;;;;;;5021079;28;20175;-60
2023/07/28 02:20:38;;;;;;;4.50;3.70;;;13.30;99.90;;;;;;5018074;28;20672;-59
2023/07/28 02:23:04;;;;;;;8.50;4.10;;;13.30;99.90;;;;;;5016546;28;20199;-59
2023/07/28 02:25:30;;;;;;;4.40;3.90;;;13.30;99.90;;;;;;5021019;28;20434;-59
2023/07/28 02:27:55;;;;;;;4.40;4.00;;;13.30;99.90;;;;;;5021507;28;20341;-59
2023/07/28 02:30:21;;;;;;;5.40;4.30;;;13.30;99.90;;;;;;5017880;28;20703;-60
2023/07/28 02:32:46;;;;;;;6.50;4.33;;;13.20;99.90;;;;;;5015258;28;20671;-58
2023/07/28 02:35:12;;;;;;;4.10;3.70;;;13.30;99.90;;;;;;5021000;28;20539;-59
2023/07/28 02:37:38;;;;;;;4.77;4.23;;;13.30;99.90;;;;;;5019664;28;20174;-60
2023/07/28 02:40:04;;;;;;;4.70;3.97;;;13.20;99.90;;;;;;5019439;28;20211;-59
2023/07/28 02:42:30;;;;;;;4.53;3.90;;;13.20;99.90;;;;;;5019036;28;20743;-60
2023/07/28 02:44:56;;;;;;;5.60;3.83;;;13.20;99.90;;;;;;5014681;28;20465;-59
2023/07/28 02:47:21;;;;;;;7.23;4.17;;;13.20;99.90;;;;;;5021557;28;20443;-58
2023/07/28 02:49:47;;;;;;;5.97;3.90;;;13.20;99.90;;;;;;5023960;28;20680;-59
2023/07/28 02:52:13;;;;;;;4.93;3.73;;;13.20;99.90;;;;;;5012489;28;20271;-59
2023/07/28 02:54:38;;;;;;;5.43;3.80;;;13.20;99.90;;;;;;5021253;28;20665;-59
2023/07/28 02:57:04;;;;;;;4.20;3.80;;;13.20;99.90;;;;;;5014562;28;20462;-59
2023/07/28 02:59:30;;;;;;;5.13;4.40;;;13.20;99.90;;;;;;5016933;28;20286;-60
2023/07/28 03:01:57;;;;;;;5.30;4.40;;;13.20;99.90;;;;;;5022309;28;20219;-59
2023/07/28 03:04:22;;;;;;;7.40;4.43;;;13.20;99.90;;;;;;5013559;28;20684;-59
2023/07/28 03:06:48;;;;;;;4.47;4.00;;;13.20;99.90;;;;;;5014838;28;20467;-59
2023/07/28 03:09:15;;;;;;;6.53;4.40;;;13.20;99.90;;;;;;5022686;28;20548;-59
2023/07/28 03:11:42;;;;;;;4.80;4.30;;;13.20;99.90;;;;;;5021482;28;20197;-60
2023/07/28 03:14:08;;;;;;;7.30;4.60;;;13.20;99.90;;;;;;5017269;28;20492;-59
2023/07/28 03:16:33;;;;;;;4.97;4.33;;;13.30;99.90;;;;;;5015300;28;21032;-57
2023/07/28 03:18:59;;;;;;;7.43;4.60;;;13.20;99.90;;;;;;5016748;28;20234;-59
2023/07/28 03:21:24;;;;;;;4.77;3.97;;;13.30;99.90;;;;;;5022123;28;20192;-59
2023/07/28 03:23:50;;;;;;;6.13;3.83;;;13.20;99.90;;;;;;5021403;28;20597;-60
2023/07/28 03:26:15;;;;;;;6.60;3.70;;;13.20;99.90;;;;;;5011787;28;20189;-59
2023/07/28 03:28:41;;;;;;;5.00;3.63;;;13.10;99.90;;;;;;5023129;28;20663;-60
2023/07/28 03:31:06;;;;;;;5.33;4.13;;;13.00;99.90;;;;;;5016438;28;20207;-58
2023/07/28 03:33:32;;;;;;;5.60;5.00;;;12.90;99.90;;;;;;5024998;28;20199;-59
2023/07/28 03:35:58;;;;;;;6.23;4.27;;;12.90;99.90;;;;;;5011911;28;20203;-59
2023/07/28 03:38:24;;;;;;;4.90;4.30;;;12.80;99.90;;;;;;5013671;28;20463;-60
2023/07/28 03:40:50;;;;;;;5.53;4.30;;;12.80;99.90;;;;;;5015574;28;20204;-60
2023/07/28 03:43:15;;;;;;;5.93;4.27;;;12.80;99.90;;;;;;5019926;28;20189;-59
2023/07/28 03:45:41;;;;;;;8.60;5.30;;;12.70;99.90;;;;;;5021503;28;20529;-59
2023/07/28 03:48:07;;;;;;;7.33;5.13;;;12.70;99.90;;;;;;5019732;28;20198;-58
2023/07/28 03:50:32;;;;;;;6.37;4.03;;;12.70;99.90;;;;;;5022825;28;20239;-59
2023/07/28 03:52:58;;;;;;;11.67;5.30;;;12.70;99.90;;;;;;5017012;28;20178;-58
2023/07/28 03:55:23;;;;;;;7.87;4.63;;;12.70;99.90;;;;;;5025940;28;20184;-60
2023/07/28 03:57:49;;;;;;;7.73;4.90;;;12.70;99.90;;;;;;5021137;28;20177;-59
2023/07/28 04:00:15;;;;;;;9.53;5.97;;;12.70;99.90;;;;;;5016551;28;20214;-59
2023/07/28 04:02:41;;;;;;;9.50;5.60;;;12.70;99.90;;;;;;5020221;28;20317;-58
2023/07/28 04:05:06;;;;;;;12.00;6.20;;;12.70;99.90;;;;;;5014630;28;20374;-58
2023/07/28 04:07:32;;;;;;;13.17;6.10;;;12.70;99.90;;;;;;5019637;28;20176;-59
2023/07/28 04:09:57;;;;;;;6.83;4.93;;;12.70;99.90;;;;;;5013106;28;20790;-59
2023/07/28 04:12:23;;;;;;;8.53;5.67;;;12.70;99.90;;;;;;5016760;28;20188;-60
2023/07/28 04:14:49;;;;;;;9.47;5.10;;;12.70;99.90;;;;;;5019272;28;20187;-59
2023/07/28 04:17:14;;;;;;;10.87;6.00;;;12.80;99.90;;;;;;5011605;28;20496;-60
2023/07/28 04:19:40;;;;;;;10.73;6.13;;;12.80;99.90;;;;;;5009836;28;20208;-60
2023/07/28 04:22:06;;;;;;;10.87;6.00;;;12.80;99.90;;;;;;5014072;28;20269;-59
2023/07/28 04:24:31;;;;;;;14.37;6.67;;;12.70;99.90;;;;;;5018823;28;20198;-59
2023/07/28 04:26:57;;;;;;;8.53;5.93;;;12.80;99.90;;;;;;5021084;28;20501;-59
2023/07/28 04:29:23;;;;;;;11.77;6.60;;;12.80;99.90;;;;;;5007417;28;20208;-60
2023/07/28 04:31:48;;;;;;;10.60;6.90;;;12.80;99.90;;;;;;5017217;28;20184;-61
2023/07/28 04:34:14;;;;;;;10.30;6.50;;;12.80;99.90;;;;;;5014673;28;20180;-60
2023/07/28 04:36:39;;;;;;;10.40;6.30;;;12.90;99.90;;;;;;5017745;28;20191;-62
2023/07/28 04:39:05;;;;;;;12.20;6.40;;;12.90;99.90;;;;;;5015107;28;20293;-60
2023/07/28 04:41:31;;;;;;;12.90;6.40;;;12.90;99.90;;;;;;5013004;28;20196;-61
2023/07/28 04:43:57;;;;;;;10.10;6.40;;;13.00;99.90;;;;;;5009305;28;20258;-61
2023/07/28 04:46:22;;;;;;;9.60;5.50;;;13.00;99.90;;;;;;5015268;28;20262;-58
2023/07/28 04:48:48;;;;;;;10.73;6.20;;;13.00;99.90;;;;;;5011604;28;20956;-57
2023/07/28 04:51:13;;;;;;;10.00;6.20;;;13.10;99.90;;;;;;5014512;28;20196;-59
2023/07/28 04:53:39;;;;;;;14.03;5.80;;;13.10;99.90;;;;;;5018877;28;20177;-59
2023/07/28 04:56:05;;;;;;;10.20;6.17;;;13.20;99.90;;;;;;5006278;28;20271;-56
2023/07/28 04:58:30;;;;;;;12.77;5.83;;;13.20;99.90;;;;;;5008713;28;20176;-59
2023/07/28 05:00:56;;;;;;;8.77;6.17;;;13.20;99.90;;;;;;5009937;28;20196;-59
2023/07/28 05:03:21;;;;;;;11.80;6.20;;;13.30;99.90;;;;;;5011187;28;20180;-56
2023/07/28 05:05:47;;;;;;;8.17;5.83;;;13.30;99.90;;;;;;5011700;28;20208;-57
2023/07/28 05:08:13;;;;;;;9.20;5.63;;;13.40;99.90;;;;;;5024002;28;20191;-56
2023/07/28 05:10:38;;;;;;;11.90;6.13;;;13.40;99.90;;;;;;5013745;28;20669;-55
2023/07/28 05:13:04;;;;;;;8.40;5.43;;;13.50;99.90;;;;;;5009552;28;20219;-55
2023/07/28 05:15:30;;;;;;;9.43;5.70;;;13.60;99.90;;;;;;5008318;28;20180;-58
2023/07/28 05:17:56;;;;;;;8.90;5.47;;;13.60;99.90;;;;;;5025943;28;20613;-58
2023/07/28 05:20:21;;;;;;;10.50;6.03;;;13.70;99.90;;;;;;5011726;28;20481;-59
2023/07/28 05:22:47;;;;;;;8.93;5.13;;;13.80;99.90;;;;;;5019367;28;20755;-58
2023/07/28 05:25:13;;;;;;;18.93;6.37;;;13.80;99.90;;;;;;5020798;28;20209;-59
2023/07/28 05:27:38;;;;;;;11.10;6.63;;;13.90;99.90;;;;;;5019028;28;20185;-59
2023/07/28 05:30:04;;;;;;;14.80;6.73;;;13.90;99.90;;;;;;5016155;28;20356;-57
2023/07/28 05:32:31;;;;;;;13.47;7.03;;;13.90;99.90;;;;;;5017019;28;20706;-57
2023/07/28 05:34:56;;;;;;;26.53;9.40;;;13.90;99.90;;;;;;5017763;28;20416;-58
2023/07/28 05:37:22;;;;;;;15.30;7.23;;;13.90;99.90;;;;;;5022467;28;20491;-58
2023/07/28 05:39:47;;;;;;;12.83;7.80;;;13.90;99.90;;;;;;5018313;28;20244;-57
2023/07/28 05:42:13;;;;;;;17.23;7.53;;;13.90;99.90;;;;;;5018642;28;20276;-58
2023/07/28 05:44:39;;;;;;;12.00;6.50;;;13.90;99.90;;;;;;5016781;28;20175;-58
2023/07/28 05:47:04;;;;;;;15.40;7.00;;;14.00;99.90;;;;;;5018131;28;20690;-58
2023/07/28 05:49:30;;;;;;;18.83;7.37;;;14.10;99.90;;;;;;5020890;28;20230;-56
2023/07/28 05:51:56;;;;;;;14.37;7.23;;;14.20;99.90;;;;;;5016728;28;20434;-58
2023/07/28 05:54:21;;;;;;;15.47;7.30;;;14.40;99.90;;;;;;5018556;28;20668;-58
2023/07/28 05:56:47;;;;;;;20.50;7.27;;;14.60;99.90;;;;;;5017925;28;20661;-58
2023/07/28 05:59:13;;;;;;;14.30;6.57;;;14.80;99.90;;;;;;5022933;28;20204;-58
2023/07/28 06:01:38;;;;;;;18.00;6.30;;;14.90;99.90;;;;;;5025061;28;20180;-58
2023/07/28 06:04:04;;;;;;;26.43;7.27;;;15.00;99.90;;;;;;5019863;28;20278;-59
2023/07/28 06:06:29;;;;;;;18.13;7.87;;;15.10;99.90;;;;;;5015349;28;20187;-60
2023/07/28 06:08:55;;;;;;;16.37;7.33;;;15.20;99.90;;;;;;5013820;28;20216;-58
2023/07/28 06:11:21;;;;;;;13.63;6.30;;;15.20;99.90;;;;;;5020244;28;20566;-58
2023/07/28 06:13:47;;;;;;;12.27;6.30;;;15.20;99.90;;;;;;5022995;28;20179;-57
2023/07/28 06:16:14;;;;;;;16.30;7.60;;;15.20;99.90;;;;;;5020134;28;20438;-58
2023/07/28 06:18:39;;;;;;;11.27;6.77;;;15.30;99.90;;;;;;5027162;28;20423;-58
2023/07/28 06:21:05;;;;;;;17.83;6.97;;;15.30;99.90;;;;;;5015384;28;20442;-57
2023/07/28 06:23:31;;;;;;;18.53;7.07;;;15.30;99.90;;;;;;5029165;28;20172;-58
2023/07/28 06:25:56;;;;;;;10.30;5.97;;;15.40;99.90;;;;;;5016219;28;20524;-55
2023/07/28 06:28:22;;;;;;;21.90;6.47;;;15.40;99.90;;;;;;5016278;28;20188;-58
2023/07/28 06:30:52;;;;;;;11.83;6.37;;;15.40;99.90;;;;;;5017852;28;20207;-58
2023/07/28 06:33:18;;;;;;;9.70;5.57;;;15.40;99.90;;;;;;5024668;28;20680;-58
2023/07/28 06:35:43;;;;;;;17.37;5.77;;;15.50;99.90;;;;;;5024155;28;20454;-59
2023/07/28 06:38:09;;;;;;;13.33;6.40;;;15.40;99.90;;;;;;5013668;28;20572;-58
2023/07/28 06:40:35;;;;;;;17.23;6.23;;;15.50;99.90;;;;;;5015786;28;20204;-59
2023/07/28 06:43:00;;;;;;;9.90;6.00;;;15.50;99.90;;;;;;5018154;28;20187;-58
2023/07/28 06:45:26;;;;;;;11.07;5.93;;;15.50;99.90;;;;;;5022928;28;20645;-58
2023/07/28 06:47:51;;;;;;;7.33;5.43;;;15.60;99.90;;;;;;5021548;28;20192;-57
2023/07/28 06:50:17;;;;;;;8.13;5.63;;;15.60;99.90;;;;;;5012306;28;20300;-58
2023/07/28 06:52:43;;;;;;;12.63;6.03;;;15.70;99.90;;;;;;5018543;28;20194;-58
2023/07/28 06:55:09;;;;;;;10.70;6.20;;;15.80;99.90;;;;;;5019033;28;20243;-58
2023/07/28 06:57:35;;;;;;;13.53;5.83;;;15.80;99.90;;;;;;5025385;28;20704;-58
2023/07/28 07:00:01;;;;;;;14.07;6.37;;;15.80;99.90;;;;;;5011750;28;20208;-59
2023/07/28 07:02:26;;;;;;;10.13;5.73;;;15.90;99.90;;;;;;5013101;28;20442;-58
2023/07/28 07:04:52;;;;;;;7.97;5.87;;;15.90;99.90;;;;;;5017376;28;20452;-58
2023/07/28 07:07:17;;;;;;;11.60;6.00;;;15.90;99.90;;;;;;5023231;28;20184;-58
2023/07/28 07:09:43;;;;;;;11.73;6.30;;;16.00;99.90;;;;;;5019331;28;20759;-58
2023/07/28 07:12:09;;;;;;;8.17;5.30;;;16.00;99.90;;;;;;5013018;28;20180;-59
2023/07/28 07:14:35;;;;;;;8.20;5.90;;;16.10;99.90;;;;;;5021710;28;20179;-59
2023/07/28 07:17:01;;;;;;;19.33;6.00;;;16.10;99.90;;;;;;5026161;28;20253;-58
2023/07/28 07:19:29;;;;;;;10.90;5.33;;;16.10;99.90;;;;;;5019098;28;20204;-59
2023/07/28 07:21:55;;;;;;;11.13;5.90;;;16.10;99.90;;;;;;5022552;28;20489;-60
2023/07/28 07:24:21;;;;;;;9.67;6.03;;;16.20;99.90;;;;;;5022612;28;20483;-58
2023/07/28 07:26:46;;;;;;;10.07;5.97;;;16.20;99.90;;;;;;5020298;28;20819;-58
2023/07/28 07:29:12;;;;;;;11.60;7.20;;;16.20;99.90;;;;;;5022994;28;20482;-59
2023/07/28 07:31:38;;;;;;;11.00;5.90;;;16.30;99.90;;;;;;5029282;28;20249;-59
2023/07/28 07:34:04;;;;;;;9.77;6.30;;;16.30;99.90;;;;;;5022163;28;20215;-59
2023/07/28 07:36:30;;;;;;;9.00;5.80;;;16.30;99.90;;;;;;5022359;28;20511;-60
2023/07/28 07:38:55;;;;;;;12.97;6.03;;;16.40;99.90;;;;;;5022041;28;20692;-59
2023/07/28 07:41:22;;;;;;;14.00;5.60;;;16.40;99.90;;;;;;5030406;28;20176;-59
2023/07/28 07:43:49;;;;;;;9.13;6.07;;;16.50;99.90;;;;;;5020082;28;20203;-59
2023/07/28 07:46:15;;;;;;;6.57;5.83;;;16.50;99.90;;;;;;5021556;28;20434;-59
2023/07/28 07:48:41;;;;;;;10.73;5.80;;;16.60;99.90;;;;;;5022970;28;20421;-58
2023/07/28 07:51:08;;;;;;;8.97;5.80;;;16.60;99.90;;;;;;5022227;28;20435;-59
2023/07/28 07:53:36;;;;;;;14.37;7.17;;;16.70;99.90;;;;;;5025454;28;20646;-58
2023/07/28 07:56:02;;;;;;;8.67;5.83;;;16.80;99.90;;;;;;5016772;28;20879;-58
2023/07/28 07:58:28;;;;;;;11.63;5.97;;;16.80;99.90;;;;;;5028928;28;20426;-59
2023/07/28 08:00:55;;;;;;;8.13;5.83;;;16.90;99.90;;;;;;5022795;28;20527;-60
2023/07/28 08:03:20;;;;;;;12.00;7.80;;;17.00;99.90;;;;;;5022806;28;20442;-58
2023/07/28 08:05:46;;;;;;;10.20;6.10;;;17.10;99.90;;;;;;5013921;28;20427;-59
2023/07/28 08:08:12;;;;;;;8.13;5.80;;;17.20;99.90;;;;;;5015319;28;20184;-59
2023/07/28 08:10:39;;;;;;;7.93;4.87;;;17.30;99.90;;;;;;5022723;28;20306;-59
2023/07/28 08:13:04;;;;;;;11.20;5.10;;;17.40;99.90;;;;;;5025418;28;20180;-60
2023/07/28 08:15:30;;;;;;;4.43;4.03;;;17.50;99.90;;;;;;5030762;28;20480;-59
2023/07/28 08:17:56;;;;;;;6.70;5.27;;;17.60;99.90;;;;;;5021009;28;20259;-59
2023/07/28 08:20:21;;;;;;;6.90;5.10;;;17.70;99.90;;;;;;5016312;28;20615;-58
2023/07/28 08:22:47;;;;;;;7.90;4.60;;;17.80;99.90;;;;;;5021471;28;20190;-57
2023/07/28 08:25:12;;;;;;;6.90;4.80;;;17.90;99.90;;;;;;5025262;28;20180;-59
2023/07/28 08:27:38;;;;;;;9.57;5.60;;;18.00;99.90;;;;;;5022609;28;20191;-59
2023/07/28 08:30:05;;;;;;;6.47;4.77;;;18.10;99.90;;;;;;5016522;28;20212;-58
2023/07/28 08:32:30;;;;;;;7.77;4.90;;;18.30;99.90;;;;;;5016825;28;20263;-59
2023/07/28 08:34:56;;;;;;;4.40;3.70;;;18.60;99.90;;;;;;5020867;28;20514;-58
2023/07/28 08:37:22;;;;;;;5.20;3.60;;;18.90;99.90;;;;;;5021188;28;20562;-59
2023/07/28 08:39:48;;;;;;;3.77;3.23;;;19.10;99.90;;;;;;5017247;28;20208;-58
2023/07/28 08:42:13;;;;;;;4.73;3.47;;;19.30;99.90;;;;;;5022094;28;20497;-59
2023/07/28 08:44:39;;;;;;;4.57;3.37;;;19.50;99.90;;;;;;5022316;28;20241;-59
2023/07/28 08:47:05;;;;;;;3.23;2.90;;;19.70;99.90;;;;;;5019374;28;20188;-59
2023/07/28 08:49:32;;;;;;;5.40;3.73;;;19.80;99.90;;;;;;5022390;28;20290;-59
2023/07/28 08:51:59;;;;;;;3.90;3.20;;;19.80;99.90;;;;;;5014324;28;20174;-59
2023/07/28 08:54:25;;;;;;;7.13;3.53;;;19.90;99.90;;;;;;5022637;28;20973;-59
2023/07/28 08:56:51;;;;;;;3.90;3.50;;;19.90;99.90;;;;;;5014045;28;20427;-59
2023/07/28 08:59:25;;;;;;;7.33;2.97;;;19.90;99.90;;;;;;5021441;28;20729;-59
2023/07/28 09:01:55;;;;;;;4.00;3.13;;;20.00;99.90;;;;;;5019286;28;20857;-59
2023/07/28 09:04:22;;;;;;;3.70;3.03;;;20.10;99.90;;;;;;5024585;28;20429;-59
2023/07/28 09:06:49;;;;;;;3.57;3.13;;;20.20;99.90;;;;;;5019829;28;20570;-58
2023/07/28 09:09:15;;;;;;;4.40;3.10;;;20.20;99.90;;;;;;5023612;28;20474;-60
2023/07/28 09:12:00;;;;;;;3.83;3.40;;;20.30;99.90;;;;;;5014971;28;20506;-59
2023/07/28 09:14:26;;;;;;;6.40;3.40;;;20.30;99.90;;;;;;5013043;28;21185;-59
2023/07/28 09:16:52;;;;;;;4.50;3.07;;;20.40;99.90;;;;;;5015520;28;20496;-59
2023/07/28 09:19:21;;;;;;;5.10;3.37;;;20.50;99.90;;;;;;5022628;28;20576;-59
2023/07/28 09:21:58;;;;;;;6.57;3.40;;;20.50;99.90;;;;;;5024053;28;20492;-59
2023/07/28 09:24:32;;;;;;;3.73;3.07;;;20.50;99.90;;;;;;5018158;28;20438;-59
2023/07/28 09:26:58;;;;;;;4.00;2.90;;;20.60;99.90;;;;;;5023320;28;20419;-61
2023/07/28 09:29:25;;;;;;;4.67;3.00;;;20.60;99.90;;;;;;5021968;28;20474;-59
2023/07/28 09:31:52;;;;;;;6.10;2.70;;;20.60;99.90;;;;;;5007114;28;20794;-58
2023/07/28 09:34:27;;;;;;;3.77;2.83;;;20.70;99.90;;;;;;5016140;28;20439;-59
2023/07/28 09:36:57;;;;;;;5.37;3.20;;;20.70;99.90;;;;;;5021865;28;20434;-59
2023/07/28 09:39:22;;;;;;;5.00;2.83;;;20.70;99.90;;;;;;5014775;28;20506;-59
2023/07/28 09:41:49;;;;;;;3.70;2.87;;;20.80;99.90;;;;;;5016684;28;20465;-59
2023/07/28 09:44:15;;;;;;;3.37;2.80;;;20.80;99.90;;;;;;5004083;28;20193;-59
2023/07/28 09:46:51;;;;;;;5.80;3.20;;;20.90;99.90;;;;;;5020071;28;20422;-59
2023/07/28 09:49:37;;;;;;;3.83;3.17;;;21.00;99.90;;;;;;5018271;28;20567;-59
2023/07/28 09:52:09;;;;;;;5.17;3.37;;;21.10;99.90;;;;;;5016368;28;20534;-58
2023/07/28 09:54:40;;;;;;;5.30;3.03;;;21.20;99.90;;;;;;5018485;28;20438;-59
2023/07/28 09:57:12;;;;;;;3.63;2.77;;;21.20;99.90;;;;;;5018676;28;20501;-59
2023/07/28 09:59:40;;;;;;;3.40;3.10;;;21.30;99.90;;;;;;5027451;28;20449;-60
2023/07/28 10:02:06;;;;;;;10.47;3.00;;;21.40;99.90;;;;;;5022819;28;20438;-60
2023/07/28 10:04:33;;;;;;;8.00;3.17;;;21.50;99.90;;;;;;5020476;28;20984;-59
2023/07/28 10:07:01;;;;;;;3.70;2.80;;;21.50;99.90;;;;;;5018482;28;20443;-59
2023/07/28 10:09:30;;;;;;;5.90;2.83;;;21.50;99.90;;;;;;5016466;28;21128;-59
2023/07/28 10:11:56;;;;;;;3.00;2.50;;;21.60;99.90;;;;;;5023411;28;20446;-59
2023/07/28 10:14:34;;;;;;;4.17;2.80;;;21.60;98.80;;;;;;5024166;28;20435;-58
2023/07/28 10:17:01;;;;;;;5.30;3.17;;;21.80;99.40;;;;;;5013889;28;20808;-59
2023/07/28 10:19:34;;;;;;;4.50;2.50;;;22.00;96.40;;;;;;5013594;28;20469;-60
2023/07/28 10:22:02;;;;;;;13.27;3.80;;;22.30;85.80;;;;;;5012711;28;20442;-59
2023/07/28 10:24:49;;;;;;;3.43;2.57;;;22.40;84.00;;;;;;5017456;28;20442;-59
2023/07/28 10:27:34;;;;;;;4.20;2.97;;;22.50;89.30;;;;;;5019365;28;20835;-59
2023/07/28 10:30:04;;;;;;;3.03;2.70;;;22.50;82.70;;;;;;5012996;28;20478;-60
2023/07/28 10:32:50;;;;;;;3.53;2.80;;;22.60;72.30;;;;;;5008142;28;20428;-58
2023/07/28 10:35:21;;;;;;;4.23;2.90;;;22.70;72.70;;;;;;5021789;28;20432;-59
2023/07/28 10:37:47;;;;;;;4.33;2.87;;;22.90;71.50;;;;;;5020278;28;20470;-58
2023/07/28 10:40:38;;;;;;;3.80;2.50;;;23.20;70.80;;;;;;5020398;28;20454;-59
2023/07/28 10:43:04;;;;;;;5.77;2.40;;;23.50;66.80;;;;;;5019163;28;20439;-59
2023/07/28 10:45:32;;;;;;;3.20;2.80;;;23.60;65.10;;;;;;5019898;28;20430;-60
2023/07/28 10:48:03;;;;;;;2.90;2.27;;;23.60;63.80;;;;;;5014453;28;20465;-59
2023/07/28 10:50:30;;;;;;;3.37;2.70;;;23.60;61.90;;;;;;5022635;28;20498;-59
2023/07/28 10:52:56;;;;;;;3.00;2.23;;;23.50;61.30;;;;;;5019749;28;20430;-59
2023/07/28 10:55:26;;;;;;;3.23;2.63;;;23.50;61.10;;;;;;5019412;28;20479;-60
2023/07/28 10:57:53;;;;;;;3.03;2.60;;;23.30;61.90;;;;;;5023409;28;20518;-58
2023/07/28 11:00:21;;;;;;;3.90;2.90;;;23.30;61.90;;;;;;5023922;28;20457;-58
2023/07/28 11:02:47;;;;;;;4.27;2.80;;;23.30;62.00;;;;;;5022830;28;20503;-60
2023/07/28 11:05:19;;;;;;;2.80;2.60;;;23.30;60.90;;;;;;5026013;28;20469;-58
2023/07/28 11:07:45;;;;;;;4.60;2.50;;;23.30;60.00;;;;;;5020172;28;21079;-61
2023/07/28 11:10:14;;;;;;;3.30;2.67;;;23.20;59.50;;;;;;5018220;28;20467;-59
2023/07/28 11:12:44;;;;;;;4.20;2.47;;;23.20;58.50;;;;;;5018542;28;20591;-60
2023/07/28 11:15:11;;;;;;;5.33;2.40;;;23.30;58.90;;;;;;5024481;28;20478;-60
2023/07/28 11:17:39;;;;;;;2.87;2.57;;;23.40;58.70;;;;;;5024611;28;20434;-60
2023/07/28 11:20:27;;;;;;;4.70;2.60;;;23.40;57.20;;;;;;5030412;28;20490;-60
2023/07/28 11:22:53;;;;;;;3.80;2.37;;;23.50;57.80;;;;;;5018443;28;20434;-57
2023/07/28 11:25:20;;;;;;;4.30;2.70;;;23.50;57.40;;;;;;5019362;28;21103;-60
2023/07/28 11:27:47;;;;;;;6.60;2.70;;;23.40;57.20;;;;;;5017479;28;20274;-59
2023/07/28 11:30:14;;;;;;;3.20;2.53;;;23.40;57.30;;;;;;5025547;28;20474;-60
2023/07/28 11:32:43;;;;;;;3.20;2.73;;;23.20;56.90;;;;;;5025157;28;20988;-59
2023/07/28 11:35:11;;;;;;;2.50;2.30;;;23.20;58.00;;;;;;5016868;28;20426;-60
2023/07/28 11:37:39;;;;;;;3.10;2.80;;;23.20;58.50;;;;;;5023931;28;20469;-59
2023/07/28 11:40:07;;;;;;;5.20;3.07;;;23.20;59.70;;;;;;5022647;28;20470;-60
2023/07/28 11:42:37;;;;;;;3.87;2.80;;;23.10;59.60;;;;;;5024531;28;20791;-58
2023/07/28 11:45:04;;;;;;;8.80;3.33;;;23.10;59.80;;;;;;5013845;28;20887;-56
2023/07/28 11:47:31;;;;;;;5.00;2.87;;;23.10;61.00;;;;;;5015458;28;20946;-58
2023/07/28 11:50:00;;;;;;;3.90;2.57;;;23.00;61.80;;;;;;5021959;28;20471;-60
2023/07/28 11:52:36;;;;;;;3.57;2.63;;;23.00;61.10;;;;;;5021043;28;20441;-59
2023/07/28 11:55:06;;;;;;;7.07;3.50;;;22.90;60.30;;;;;;5027348;28;20517;-58
2023/07/28 11:57:32;;;;;;;3.37;3.03;;;22.80;60.70;;;;;;5020509;28;20512;-57
2023/07/28 12:00:03;;;;;;;4.33;2.43;;;22.80;63.40;;;;;;5015030;28;20494;-58
2023/07/28 12:02:31;;;;;;;4.97;2.77;;;22.80;64.20;;;;;;5022207;28;20845;-59
2023/07/28 12:04:58;;;;;;;6.63;2.20;;;22.80;62.10;;;;;;5023938;28;20518;-57
2023/07/28 12:07:33;;;;;;;3.67;2.47;;;22.70;59.80;;;;;;5023739;28;20464;-57
2023/07/28 12:10:08;;;;;;;3.73;3.00;;;22.70;60.30;;;;;;5025596;28;20477;-58
2023/07/28 12:12:45;;;;;;;4.73;2.40;;;22.70;62.30;;;;;;5014463;28;21080;-58
2023/07/28 12:15:30;;;;;;;2.93;2.57;;;22.70;62.00;;;;;;5015386;28;20457;-58
2023/07/28 12:18:15;;;;;;;3.63;3.13;;;22.70;61.40;;;;;;5017701;28;20933;-58
2023/07/28 12:20:52;;;;;;;4.43;2.60;;;22.70;61.10;;;;;;5020828;28;20537;-59
2023/07/28 12:23:22;;;;;;;2.33;2.13;;;22.80;62.20;;;;;;5027345;28;20430;-59
2023/07/28 12:25:49;;;;;;;3.03;2.53;;;23.00;63.60;;;;;;5016029;28;20445;-58
2023/07/28 12:28:14;;;;;;;4.93;3.03;;;23.10;61.70;;;;;;5017378;28;20447;-58
2023/07/28 12:30:40;;;;;;;5.30;2.60;;;23.20;61.50;;;;;;5020252;28;20478;-59
2023/07/28 12:33:06;;;;;;;4.03;2.63;;;23.30;62.60;;;;;;5019174;28;20180;-58
2023/07/28 12:35:34;;;;;;;6.10;3.37;;;23.30;64.80;;;;;;5020168;28;20231;-59
2023/07/28 12:38:01;;;;;;;5.03;3.00;;;23.50;61.20;;;;;;5025527;28;20446;-59
2023/07/28 12:40:30;;;;;;;4.37;2.63;;;23.40;60.50;;;;;;5017554;28;20463;-58
2023/07/28 12:42:56;;;;;;;3.60;2.33;;;23.50;60.80;;;;;;5016683;28;20433;-59
2023/07/28 12:45:22;;;;;;;5.10;2.70;;;23.40;60.30;;;;;;5019201;28;20525;-59